Urb Santiago, Puerto Rico
Current Conditions -  °F | °C
As of 11:53 PM on Tuesday 25 Nov 2014 (Local Time) from TJNR Reporting Station
Scattered Clouds Scattered Clouds  
Wind Chill: 79°   Ceiling: Unl
Heat Index: 82°   Visibility: 10mi
Dew Point: 71°   Wind: 7mph
Humidity: 77%   Direction: 90°E
Pressure: 30.04"   Gusts: NA
Location:  18.2022°N, 65.86°W
Report Text: TJNR 260353Z AUTO 09006KT 10SM SCT031 26/22 A3004 RMK AO2 SLP171 T02610217 402940244 $
Loading
Personal Weather Stations






























Interactive Weather Map New forecast layout! Learn more

10-Day Weather Forecast

Advertisements
Track Severe Weather on mobile